SWA2731 KLAX-KLAS
Flight info
| Callsign | SWA2731 |
|---|---|
| Flight time | 0h 44m |
| Altitude | 27000 |
| Route | ORCKA5 MISEN RNDRZ4 |
| Aircraft | B737/M-SDE2E3FGHIRWXY/LB1 |
Departure
| Time | 2026-05-06 23:53 |
|---|---|
| Airport | Los Angeles International Airport (KLAX) |
Arrival
| Time | 2026-05-07 00:38 |
|---|---|
| Airport | Harry Reid International Airport (KLAS) |
| Time | Latitude | Longitude | Altitude | Speed | Heading |
|---|---|---|---|---|---|
| 2026-05-06 23:34 | 33.94685 | -118.40182 | 94 ft | 0 kts | 83° |
| 2026-05-06 23:46 | 33.94682 | -118.40205 | 95 ft | 4 kts | 75° |
| 2026-05-06 23:47 | 33.94672 | -118.40234 | 94 ft | 4 kts | 47° |
| 2026-05-06 23:47 | 33.94654 | -118.40246 | 94 ft | 1 kts | 353° |
| 2026-05-06 23:47 | 33.94653 | -118.40246 | 94 ft | 0 kts | 353° |
| 2026-05-06 23:49 | 33.94660 | -118.40247 | 95 ft | 3 kts | 353° |
| 2026-05-06 23:49 | 33.94699 | -118.40253 | 95 ft | 8 kts | 353° |
| 2026-05-06 23:49 | 33.94756 | -118.40261 | 94 ft | 4 kts | 353° |
| 2026-05-06 23:50 | 33.94759 | -118.40262 | 96 ft | 0 kts | 353° |
| 2026-05-06 23:50 | 33.94761 | -118.40262 | 94 ft | 1 kts | 353° |
| 2026-05-06 23:50 | 33.94786 | -118.40266 | 94 ft | 6 kts | 351° |
| 2026-05-06 23:51 | 33.94841 | -118.40288 | 96 ft | 10 kts | 340° |
| 2026-05-06 23:51 | 33.94898 | -118.40253 | 99 ft | 11 kts | 72° |
| 2026-05-06 23:51 | 33.94909 | -118.40151 | 99 ft | 14 kts | 83° |
| 2026-05-06 23:51 | 33.94922 | -118.40021 | 98 ft | 16 kts | 83° |
| 2026-05-06 23:52 | 33.94969 | -118.39915 | 102 ft | 15 kts | 20° |
| 2026-05-06 23:52 | 33.95040 | -118.39942 | 108 ft | 11 kts | 289° |
| 2026-05-06 23:52 | 33.95029 | -118.40084 | 108 ft | 40 kts | 263° |
| 2026-05-06 23:52 | 33.94964 | -118.40713 | 108 ft | 108 kts | 263° |
| 2026-05-06 23:53 | 33.94850 | -118.41827 | 218 ft | 149 kts | 263° |
| 2026-05-06 23:53 | 33.94726 | -118.43021 | 960 ft | 147 kts | 262° |
| 2026-05-06 23:53 | 33.94592 | -118.44312 | 1588 ft | 158 kts | 261° |
| 2026-05-06 23:53 | 33.94448 | -118.45667 | 2245 ft | 171 kts | 263° |
| 2026-05-06 23:54 | 33.94291 | -118.47224 | 2501 ft | 202 kts | 263° |
| 2026-05-06 23:54 | 33.94110 | -118.49013 | 2713 ft | 229 kts | 264° |
| 2026-05-06 23:54 | 33.93913 | -118.51033 | 3023 ft | 254 kts | 264° |
| 2026-05-06 23:54 | 33.93710 | -118.53187 | 3665 ft | 264 kts | 264° |
| 2026-05-06 23:55 | 33.93492 | -118.55411 | 4415 ft | 270 kts | 259° |
| 2026-05-06 23:55 | 33.92597 | -118.57419 | 5126 ft | 281 kts | 225° |
| 2026-05-06 23:55 | 33.90896 | -118.58575 | 5885 ft | 286 kts | 193° |
| 2026-05-06 23:55 | 33.88936 | -118.58683 | 6669 ft | 288 kts | 167° |
| 2026-05-06 23:56 | 33.87103 | -118.57784 | 7469 ft | 286 kts | 141° |
| 2026-05-06 23:56 | 33.85814 | -118.56008 | 8326 ft | 281 kts | 112° |
| 2026-05-06 23:56 | 33.85408 | -118.53760 | 9248 ft | 275 kts | 84° |
| 2026-05-06 23:56 | 33.85926 | -118.51590 | 10181 ft | 271 kts | 59° |
| 2026-05-06 23:57 | 33.87131 | -118.49783 | 10688 ft | 288 kts | 42° |
| 2026-05-06 23:57 | 33.88720 | -118.48138 | 10879 ft | 314 kts | 40° |
| 2026-05-06 23:57 | 33.90469 | -118.46389 | 11061 ft | 339 kts | 40° |
| 2026-05-06 23:57 | 33.92308 | -118.44492 | 11439 ft | 354 kts | 43° |
| 2026-05-06 23:58 | 33.93948 | -118.42254 | 12103 ft | 360 kts | 53° |
| 2026-05-06 23:58 | 33.95366 | -118.39746 | 12871 ft | 364 kts | 56° |
| 2026-05-06 23:58 | 33.96759 | -118.37224 | 13589 ft | 368 kts | 55° |
| 2026-05-06 23:58 | 33.98194 | -118.34652 | 14246 ft | 372 kts | 55° |
| 2026-05-06 23:59 | 33.99656 | -118.32058 | 14900 ft | 375 kts | 55° |
| 2026-05-06 23:59 | 34.01136 | -118.29446 | 15616 ft | 378 kts | 54° |
| 2026-05-06 23:59 | 34.02622 | -118.26826 | 16316 ft | 381 kts | 54° |
| 2026-05-06 23:59 | 34.04123 | -118.24181 | 16971 ft | 385 kts | 54° |
| 2026-05-07 00:00 | 34.05644 | -118.21498 | 17603 ft | 389 kts | 54° |
| 2026-05-07 00:00 | 34.07180 | -118.18785 | 18243 ft | 393 kts | 54° |
| 2026-05-07 00:00 | 34.08730 | -118.16047 | 18783 ft | 396 kts | 54° |
| 2026-05-07 00:00 | 34.10293 | -118.13282 | 19348 ft | 399 kts | 54° |
| 2026-05-07 00:01 | 34.11841 | -118.10540 | 19907 ft | 402 kts | 54° |
| 2026-05-07 00:01 | 34.13413 | -118.07756 | 20463 ft | 405 kts | 54° |
| 2026-05-07 00:01 | 34.15013 | -118.04917 | 21016 ft | 408 kts | 54° |
| 2026-05-07 00:01 | 34.16611 | -118.02082 | 21551 ft | 410 kts | 54° |
| 2026-05-07 00:02 | 34.17678 | -118.00186 | 21894 ft | 412 kts | 54° |
| 2026-05-07 00:02 | 34.19844 | -117.96336 | 22566 ft | 415 kts | 54° |
| 2026-05-07 00:02 | 34.21476 | -117.93432 | 23018 ft | 419 kts | 54° |
| 2026-05-07 00:02 | 34.23118 | -117.90506 | 23458 ft | 422 kts | 54° |
| 2026-05-07 00:03 | 34.24773 | -117.87556 | 23847 ft | 425 kts | 54° |
| 2026-05-07 00:03 | 34.26411 | -117.84632 | 24253 ft | 427 kts | 54° |
| 2026-05-07 00:03 | 34.28078 | -117.81656 | 24722 ft | 427 kts | 54° |
| 2026-05-07 00:03 | 34.29748 | -117.78672 | 25131 ft | 429 kts | 54° |
| 2026-05-07 00:04 | 34.31428 | -117.75667 | 25489 ft | 432 kts | 54° |
| 2026-05-07 00:04 | 34.33119 | -117.72640 | 25910 ft | 434 kts | 54° |
| 2026-05-07 00:04 | 34.34813 | -117.69607 | 26314 ft | 435 kts | 54° |
| 2026-05-07 00:04 | 34.36537 | -117.66592 | 26755 ft | 435 kts | 53° |
| 2026-05-07 00:05 | 34.38283 | -117.63653 | 27029 ft | 435 kts | 52° |
| 2026-05-07 00:05 | 34.40064 | -117.60699 | 27035 ft | 432 kts | 52° |
| 2026-05-07 00:05 | 34.41838 | -117.57766 | 27049 ft | 432 kts | 52° |
| 2026-05-07 00:05 | 34.43612 | -117.54822 | 27060 ft | 432 kts | 52° |
| 2026-05-07 00:06 | 34.45379 | -117.51879 | 27069 ft | 432 kts | 53° |
| 2026-05-07 00:06 | 34.47142 | -117.48929 | 27076 ft | 432 kts | 53° |
| 2026-05-07 00:06 | 34.48901 | -117.45977 | 27081 ft | 432 kts | 53° |
| 2026-05-07 00:06 | 34.50659 | -117.43022 | 27083 ft | 432 kts | 53° |
| 2026-05-07 00:07 | 34.52416 | -117.40062 | 27085 ft | 431 kts | 53° |
| 2026-05-07 00:07 | 34.54147 | -117.37145 | 27080 ft | 431 kts | 53° |
| 2026-05-07 00:07 | 34.55899 | -117.34189 | 27080 ft | 431 kts | 53° |
| 2026-05-07 00:07 | 34.57645 | -117.31240 | 27084 ft | 430 kts | 53° |
| 2026-05-07 00:08 | 34.59396 | -117.28282 | 27078 ft | 430 kts | 53° |
| 2026-05-07 00:08 | 34.61140 | -117.25333 | 27080 ft | 430 kts | 53° |
| 2026-05-07 00:08 | 34.62881 | -117.22387 | 27074 ft | 430 kts | 53° |
| 2026-05-07 00:08 | 34.64624 | -117.19435 | 27060 ft | 430 kts | 53° |
| 2026-05-07 00:09 | 34.66363 | -117.16487 | 27051 ft | 430 kts | 53° |
| 2026-05-07 00:09 | 34.68105 | -117.13533 | 27042 ft | 430 kts | 53° |
| 2026-05-07 00:09 | 34.69847 | -117.10574 | 27025 ft | 430 kts | 53° |
| 2026-05-07 00:09 | 34.71561 | -117.07662 | 27030 ft | 430 kts | 53° |
| 2026-05-07 00:10 | 34.73298 | -117.04708 | 27006 ft | 430 kts | 53° |
| 2026-05-07 00:10 | 34.75042 | -117.01739 | 27001 ft | 431 kts | 53° |
| 2026-05-07 00:10 | 34.76784 | -116.98771 | 27003 ft | 431 kts | 53° |
| 2026-05-07 00:10 | 34.78524 | -116.95806 | 27003 ft | 431 kts | 53° |
| 2026-05-07 00:11 | 34.79112 | -116.94801 | 27003 ft | 431 kts | 53° |
| 2026-05-07 00:11 | 34.82008 | -116.89856 | 27016 ft | 431 kts | 53° |
| 2026-05-07 00:11 | 34.83751 | -116.86878 | 27010 ft | 431 kts | 53° |
| 2026-05-07 00:11 | 34.85492 | -116.83900 | 27010 ft | 432 kts | 53° |
| 2026-05-07 00:12 | 34.87211 | -116.80955 | 27006 ft | 432 kts | 53° |
| 2026-05-07 00:12 | 34.88949 | -116.77977 | 27006 ft | 431 kts | 53° |
| 2026-05-07 00:12 | 34.90685 | -116.75001 | 27010 ft | 431 kts | 53° |
| 2026-05-07 00:12 | 34.92422 | -116.72015 | 27010 ft | 431 kts | 53° |
| 2026-05-07 00:13 | 34.94130 | -116.69021 | 27005 ft | 431 kts | 54° |
| 2026-05-07 00:13 | 34.95828 | -116.66006 | 27004 ft | 431 kts | 54° |
| 2026-05-07 00:13 | 34.97522 | -116.62986 | 26997 ft | 431 kts | 54° |
| 2026-05-07 00:13 | 34.99213 | -116.59972 | 26990 ft | 431 kts | 54° |
| 2026-05-07 00:14 | 35.00910 | -116.56950 | 26987 ft | 431 kts | 54° |
| 2026-05-07 00:14 | 35.02609 | -116.53928 | 26981 ft | 431 kts | 54° |
| 2026-05-07 00:14 | 35.04306 | -116.50909 | 26983 ft | 431 kts | 54° |
| 2026-05-07 00:14 | 35.05982 | -116.47925 | 26980 ft | 431 kts | 54° |
| 2026-05-07 00:15 | 35.07676 | -116.44906 | 26979 ft | 432 kts | 54° |
| 2026-05-07 00:15 | 35.09372 | -116.41884 | 26978 ft | 432 kts | 54° |
| 2026-05-07 00:15 | 35.11209 | -116.38989 | 26970 ft | 431 kts | 47° |
| 2026-05-07 00:15 | 35.13270 | -116.36332 | 26978 ft | 430 kts | 45° |
| 2026-05-07 00:16 | 35.15360 | -116.33693 | 26967 ft | 431 kts | 45° |
| 2026-05-07 00:16 | 35.17438 | -116.31056 | 26966 ft | 431 kts | 45° |
| 2026-05-07 00:16 | 35.19508 | -116.28402 | 26961 ft | 430 kts | 46° |
| 2026-05-07 00:16 | 35.21562 | -116.25749 | 26967 ft | 430 kts | 46° |
| 2026-05-07 00:17 | 35.23612 | -116.23069 | 26954 ft | 431 kts | 46° |
| 2026-05-07 00:17 | 35.25613 | -116.20344 | 26487 ft | 435 kts | 47° |
| 2026-05-07 00:17 | 35.27607 | -116.17579 | 25914 ft | 429 kts | 47° |
| 2026-05-07 00:17 | 35.29576 | -116.14854 | 25052 ft | 427 kts | 47° |
| 2026-05-07 00:18 | 35.31540 | -116.12153 | 24293 ft | 422 kts | 47° |
| 2026-05-07 00:18 | 35.33463 | -116.09514 | 23561 ft | 418 kts | 47° |
| 2026-05-07 00:18 | 35.35392 | -116.06867 | 22699 ft | 415 kts | 47° |
| 2026-05-07 00:18 | 35.37304 | -116.04240 | 21926 ft | 409 kts | 47° |
| 2026-05-07 00:19 | 35.39186 | -116.01653 | 21178 ft | 404 kts | 47° |
| 2026-05-07 00:19 | 35.41041 | -115.99099 | 20450 ft | 399 kts | 47° |
| 2026-05-07 00:19 | 35.42882 | -115.96563 | 19729 ft | 395 kts | 47° |
| 2026-05-07 00:19 | 35.43496 | -115.95718 | 19491 ft | 394 kts | 47° |
| 2026-05-07 00:20 | 35.50029 | -115.86699 | 16798 ft | 383 kts | 47° |
| 2026-05-07 00:20 | 35.51759 | -115.84306 | 16659 ft | 364 kts | 47° |
| 2026-05-07 00:21 | 35.53407 | -115.82025 | 16495 ft | 349 kts | 47° |
| 2026-05-07 00:21 | 35.54986 | -115.79838 | 16348 ft | 335 kts | 47° |
| 2026-05-07 00:21 | 35.56500 | -115.77741 | 16212 ft | 322 kts | 47° |
| 2026-05-07 00:21 | 35.57959 | -115.75719 | 16085 ft | 310 kts | 47° |
| 2026-05-07 00:22 | 35.59361 | -115.73778 | 15945 ft | 298 kts | 47° |
| 2026-05-07 00:22 | 35.60740 | -115.71906 | 15804 ft | 292 kts | 47° |
| 2026-05-07 00:22 | 35.62089 | -115.70091 | 15676 ft | 290 kts | 47° |
| 2026-05-07 00:22 | 35.63456 | -115.68253 | 15540 ft | 293 kts | 46° |
| 2026-05-07 00:23 | 35.64839 | -115.66390 | 15423 ft | 298 kts | 47° |
| 2026-05-07 00:23 | 35.66239 | -115.64501 | 15251 ft | 298 kts | 47° |
| 2026-05-07 00:23 | 35.67637 | -115.62610 | 15113 ft | 298 kts | 47° |
| 2026-05-07 00:23 | 35.69030 | -115.60726 | 14951 ft | 297 kts | 46° |
| 2026-05-07 00:24 | 35.70423 | -115.58841 | 14800 ft | 297 kts | 46° |
| 2026-05-07 00:24 | 35.71809 | -115.56964 | 14644 ft | 295 kts | 46° |
| 2026-05-07 00:24 | 35.73275 | -115.55251 | 14492 ft | 294 kts | 34° |
| 2026-05-07 00:24 | 35.75008 | -115.53941 | 14369 ft | 292 kts | 29° |
| 2026-05-07 00:25 | 35.76780 | -115.52724 | 14211 ft | 291 kts | 28° |
| 2026-05-07 00:25 | 35.78555 | -115.51515 | 14074 ft | 290 kts | 28° |
| 2026-05-07 00:25 | 35.80318 | -115.50304 | 13918 ft | 290 kts | 28° |
| 2026-05-07 00:25 | 35.82078 | -115.49086 | 13768 ft | 290 kts | 28° |
| 2026-05-07 00:26 | 35.83814 | -115.47876 | 13616 ft | 289 kts | 28° |
| 2026-05-07 00:26 | 35.85558 | -115.46656 | 13455 ft | 288 kts | 28° |
| 2026-05-07 00:26 | 35.87302 | -115.45433 | 13304 ft | 288 kts | 28° |
| 2026-05-07 00:26 | 35.89041 | -115.44212 | 13158 ft | 287 kts | 28° |
| 2026-05-07 00:27 | 35.90777 | -115.42992 | 12983 ft | 287 kts | 28° |
| 2026-05-07 00:27 | 35.92535 | -115.41764 | 12646 ft | 293 kts | 28° |
| 2026-05-07 00:27 | 35.94319 | -115.40520 | 12326 ft | 295 kts | 28° |
| 2026-05-07 00:27 | 35.96098 | -115.39279 | 11986 ft | 292 kts | 28° |
| 2026-05-07 00:28 | 35.97850 | -115.38056 | 11657 ft | 288 kts | 28° |
| 2026-05-07 00:28 | 35.99562 | -115.36802 | 11327 ft | 286 kts | 36° |
| 2026-05-07 00:28 | 36.00845 | -115.34939 | 11026 ft | 289 kts | 60° |
| 2026-05-07 00:28 | 36.01451 | -115.32585 | 10808 ft | 290 kts | 83° |
| 2026-05-07 00:29 | 36.01433 | -115.30081 | 10648 ft | 293 kts | 90° |
| 2026-05-07 00:29 | 36.01299 | -115.27557 | 10437 ft | 297 kts | 91° |
| 2026-05-07 00:30 | 36.00866 | -115.19915 | 9781 ft | 295 kts | 91° |
| 2026-05-07 00:30 | 36.00778 | -115.18222 | 9622 ft | 290 kts | 91° |
| 2026-05-07 00:30 | 36.00492 | -115.12591 | 9142 ft | 274 kts | 91° |
| 2026-05-07 00:31 | 36.00374 | -115.10270 | 8935 ft | 268 kts | 90° |
| 2026-05-07 00:31 | 36.00259 | -115.07980 | 8687 ft | 264 kts | 91° |
| 2026-05-07 00:31 | 36.00144 | -115.05729 | 8461 ft | 260 kts | 91° |
| 2026-05-07 00:31 | 36.00031 | -115.03522 | 8233 ft | 256 kts | 91° |
| 2026-05-07 00:32 | 35.99921 | -115.01368 | 8069 ft | 250 kts | 90° |
| 2026-05-07 00:32 | 35.99882 | -114.99274 | 8014 ft | 238 kts | 87° |
| 2026-05-07 00:32 | 35.99877 | -114.97242 | 7985 ft | 236 kts | 87° |
| 2026-05-07 00:32 | 35.99874 | -114.95191 | 7712 ft | 248 kts | 87° |
| 2026-05-07 00:33 | 36.00138 | -114.93034 | 6931 ft | 259 kts | 64° |
| 2026-05-07 00:33 | 36.01229 | -114.91305 | 6479 ft | 253 kts | 38° |
| 2026-05-07 00:33 | 36.02744 | -114.90266 | 6058 ft | 247 kts | 11° |
| 2026-05-07 00:33 | 36.04419 | -114.90301 | 5762 ft | 238 kts | 346° |
| 2026-05-07 00:34 | 36.05860 | -114.91157 | 5426 ft | 234 kts | 315° |
| 2026-05-07 00:34 | 36.06636 | -114.92874 | 5153 ft | 226 kts | 287° |
| 2026-05-07 00:34 | 36.07090 | -114.94759 | 4831 ft | 232 kts | 284° |
| 2026-05-07 00:34 | 36.07331 | -114.96730 | 4555 ft | 232 kts | 275° |
| 2026-05-07 00:35 | 36.07400 | -114.98731 | 4261 ft | 232 kts | 270° |
| 2026-05-07 00:35 | 36.07391 | -115.00716 | 3958 ft | 229 kts | 269° |
| 2026-05-07 00:35 | 36.07381 | -115.02648 | 3665 ft | 220 kts | 270° |
| 2026-05-07 00:35 | 36.07378 | -115.03880 | 3485 ft | 212 kts | 270° |
| 2026-05-07 00:36 | 36.07376 | -115.05662 | 3211 ft | 200 kts | 269° |
| 2026-05-07 00:36 | 36.07372 | -115.07828 | 2885 ft | 179 kts | 269° |
| 2026-05-07 00:36 | 36.07370 | -115.09272 | 2695 ft | 158 kts | 269° |
| 2026-05-07 00:36 | 36.07367 | -115.10174 | 2550 ft | 153 kts | 269° |
| 2026-05-07 00:37 | 36.07364 | -115.11881 | 2311 ft | 151 kts | 270° |
| 2026-05-07 00:37 | 36.07368 | -115.12748 | 2209 ft | 152 kts | 270° |
| 2026-05-07 00:37 | 36.07366 | -115.13936 | 2188 ft | 113 kts | 270° |
| 2026-05-07 00:37 | 36.07366 | -115.14643 | 2189 ft | 52 kts | 271° |
| 2026-05-07 00:38 | 36.07424 | -115.14947 | 2188 ft | 26 kts | 297° |
| 2026-05-07 00:38 | 36.07516 | -115.15112 | 2187 ft | 20 kts | 317° |
| 2026-05-07 00:38 | 36.07638 | -115.15196 | 2191 ft | 20 kts | 335° |
| 2026-05-07 00:38 | 36.07761 | -115.15266 | 2188 ft | 19 kts | 335° |
| 2026-05-07 00:39 | 36.07856 | -115.15297 | 2190 ft | 12 kts | 25° |
| 2026-05-07 00:39 | 36.07878 | -115.15197 | 2187 ft | 15 kts | 91° |
| 2026-05-07 00:39 | 36.07874 | -115.15037 | 2187 ft | 22 kts | 94° |
| 2026-05-07 00:39 | 36.07862 | -115.14853 | 2187 ft | 19 kts | 95° |
| 2026-05-07 00:40 | 36.07878 | -115.14746 | 2190 ft | 12 kts | 36° |
| 2026-05-07 00:40 | 36.07952 | -115.14762 | 2187 ft | 10 kts | 335° |
| 2026-05-07 00:40 | 36.08001 | -115.14774 | 2188 ft | 6 kts | 33° |
| 2026-05-07 00:40 | 36.08021 | -115.14738 | 2190 ft | 4 kts | 58° |
| 2026-05-07 00:41 | 36.08026 | -115.14727 | 2188 ft | 0 kts | 58° |